sensor_id;sensor_type;location;lat;lon;timestamp;P1;durP1;ratioP1;P2;durP2;ratioP2
52035;SDS011;38046;49.448;32.074;2023-06-19T00:00:10;13.13;;;9.20;;
52035;SDS011;38046;49.448;32.074;2023-06-19T00:02:40;10.70;;;8.35;;
52035;SDS011;38046;49.448;32.074;2023-06-19T00:05:07;10.77;;;9.07;;
52035;SDS011;38046;49.448;32.074;2023-06-19T00:07:34;9.30;;;8.25;;
52035;SDS011;38046;49.448;32.074;2023-06-19T00:10:01;10.57;;;8.43;;
52035;SDS011;38046;49.448;32.074;2023-06-19T00:12:26;10.27;;;8.77;;
52035;SDS011;38046;49.448;32.074;2023-06-19T00:14:52;11.07;;;8.40;;
52035;SDS011;38046;49.448;32.074;2023-06-19T00:17:18;9.60;;;7.88;;
52035;SDS011;38046;49.448;32.074;2023-06-19T00:19:43;10.93;;;7.82;;
52035;SDS011;38046;49.448;32.074;2023-06-19T00:22:09;10.93;;;8.20;;
52035;SDS011;38046;49.448;32.074;2023-06-19T00:24:35;10.07;;;8.60;;
52035;SDS011;38046;49.448;32.074;2023-06-19T00:27:01;9.00;;;8.02;;
52035;SDS011;38046;49.448;32.074;2023-06-19T00:29:28;10.68;;;8.10;;
52035;SDS011;38046;49.448;32.074;2023-06-19T00:31:54;8.77;;;7.57;;
52035;SDS011;38046;49.448;32.074;2023-06-19T00:34:19;10.00;;;8.25;;
52035;SDS011;38046;49.448;32.074;2023-06-19T00:36:45;10.40;;;8.48;;
52035;SDS011;38046;49.448;32.074;2023-06-19T00:39:11;9.20;;;7.85;;
52035;SDS011;38046;49.448;32.074;2023-06-19T00:41:37;10.95;;;8.75;;
52035;SDS011;38046;49.448;32.074;2023-06-19T00:44:04;9.25;;;7.75;;
52035;SDS011;38046;49.448;32.074;2023-06-19T00:46:30;8.65;;;7.75;;
52035;SDS011;38046;49.448;32.074;2023-06-19T00:48:56;9.50;;;8.07;;
52035;SDS011;38046;49.448;32.074;2023-06-19T00:51:22;10.35;;;7.93;;
52035;SDS011;38046;49.448;32.074;2023-06-19T00:53:48;10.35;;;7.80;;
52035;SDS011;38046;49.448;32.074;2023-06-19T00:56:14;10.68;;;7.63;;
52035;SDS011;38046;49.448;32.074;2023-06-19T00:58:43;12.00;;;8.10;;
52035;SDS011;38046;49.448;32.074;2023-06-19T01:01:09;9.57;;;8.35;;
52035;SDS011;38046;49.448;32.074;2023-06-19T01:03:35;9.98;;;7.72;;
52035;SDS011;38046;49.448;32.074;2023-06-19T01:06:01;8.40;;;7.47;;
52035;SDS011;38046;49.448;32.074;2023-06-19T01:11:01;9.45;;;7.47;;
52035;SDS011;38046;49.448;32.074;2023-06-19T01:13:36;10.77;;;8.25;;
52035;SDS011;38046;49.448;32.074;2023-06-19T01:16:06;9.65;;;7.88;;
52035;SDS011;38046;49.448;32.074;2023-06-19T01:18:32;9.90;;;7.25;;
52035;SDS011;38046;49.448;32.074;2023-06-19T01:23:36;15.73;;;8.30;;
52035;SDS011;38046;49.448;32.074;2023-06-19T01:26:01;9.75;;;7.80;;
52035;SDS011;38046;49.448;32.074;2023-06-19T01:28:27;11.38;;;9.38;;
52035;SDS011;38046;49.448;32.074;2023-06-19T01:30:53;11.18;;;9.38;;
52035;SDS011;38046;49.448;32.074;2023-06-19T01:33:25;11.82;;;10.52;;
52035;SDS011;38046;49.448;32.074;2023-06-19T01:35:53;12.75;;;11.05;;
52035;SDS011;38046;49.448;32.074;2023-06-19T01:38:21;12.23;;;10.80;;
52035;SDS011;38046;49.448;32.074;2023-06-19T01:40:51;12.02;;;10.10;;
52035;SDS011;38046;49.448;32.074;2023-06-19T01:43:18;12.27;;;10.25;;
52035;SDS011;38046;49.448;32.074;2023-06-19T01:45:45;12.85;;;9.88;;
52035;SDS011;38046;49.448;32.074;2023-06-19T01:48:10;11.65;;;9.85;;
52035;SDS011;38046;49.448;32.074;2023-06-19T01:50:36;9.95;;;8.93;;
52035;SDS011;38046;49.448;32.074;2023-06-19T01:53:02;11.15;;;9.02;;
52035;SDS011;38046;49.448;32.074;2023-06-19T01:55:28;10.00;;;8.57;;
52035;SDS011;38046;49.448;32.074;2023-06-19T01:57:53;10.90;;;8.73;;
52035;SDS011;38046;49.448;32.074;2023-06-19T02:00:19;10.02;;;8.52;;
52035;SDS011;38046;49.448;32.074;2023-06-19T02:02:45;9.27;;;8.23;;
52035;SDS011;38046;49.448;32.074;2023-06-19T02:05:11;9.70;;;8.18;;
52035;SDS011;38046;49.448;32.074;2023-06-19T02:07:38;10.65;;;8.25;;
52035;SDS011;38046;49.448;32.074;2023-06-19T02:10:04;10.90;;;8.90;;
52035;SDS011;38046;49.448;32.074;2023-06-19T02:12:30;11.48;;;8.18;;
52035;SDS011;38046;49.448;32.074;2023-06-19T02:14:56;10.85;;;8.15;;
52035;SDS011;38046;49.448;32.074;2023-06-19T02:17:22;12.10;;;8.38;;
52035;SDS011;38046;49.448;32.074;2023-06-19T02:19:47;9.52;;;7.85;;
52035;SDS011;38046;49.448;32.074;2023-06-19T02:22:13;10.05;;;8.95;;
52035;SDS011;38046;49.448;32.074;2023-06-19T02:24:38;12.45;;;9.10;;
52035;SDS011;38046;49.448;32.074;2023-06-19T02:27:04;12.48;;;9.50;;
52035;SDS011;38046;49.448;32.074;2023-06-19T02:29:31;11.43;;;9.60;;
52035;SDS011;38046;49.448;32.074;2023-06-19T02:31:58;11.25;;;9.68;;
52035;SDS011;38046;49.448;32.074;2023-06-19T02:34:24;10.45;;;8.95;;
52035;SDS011;38046;49.448;32.074;2023-06-19T02:36:51;12.85;;;9.45;;
52035;SDS011;38046;49.448;32.074;2023-06-19T02:39:16;11.02;;;9.25;;
52035;SDS011;38046;49.448;32.074;2023-06-19T02:41:43;12.10;;;9.52;;
52035;SDS011;38046;49.448;32.074;2023-06-19T02:44:11;13.10;;;9.65;;
52035;SDS011;38046;49.448;32.074;2023-06-19T02:46:37;10.93;;;8.63;;
52035;SDS011;38046;49.448;32.074;2023-06-19T02:49:03;11.07;;;9.82;;
52035;SDS011;38046;49.448;32.074;2023-06-19T02:51:29;12.82;;;9.70;;
52035;SDS011;38046;49.448;32.074;2023-06-19T02:53:54;14.10;;;11.40;;
52035;SDS011;38046;49.448;32.074;2023-06-19T02:56:20;13.60;;;11.30;;
52035;SDS011;38046;49.448;32.074;2023-06-19T02:58:45;12.27;;;10.77;;
52035;SDS011;38046;49.448;32.074;2023-06-19T03:01:11;14.73;;;10.88;;
52035;SDS011;38046;49.448;32.074;2023-06-19T03:03:37;13.35;;;11.00;;
52035;SDS011;38046;49.448;32.074;2023-06-19T03:06:06;11.57;;;10.35;;
52035;SDS011;38046;49.448;32.074;2023-06-19T03:08:33;12.60;;;10.85;;
52035;SDS011;38046;49.448;32.074;2023-06-19T03:10:59;12.35;;;10.50;;
52035;SDS011;38046;49.448;32.074;2023-06-19T03:13:25;12.88;;;10.43;;
52035;SDS011;38046;49.448;32.074;2023-06-19T03:15:50;14.52;;;10.93;;
52035;SDS011;38046;49.448;32.074;2023-06-19T03:18:16;12.77;;;10.32;;
52035;SDS011;38046;49.448;32.074;2023-06-19T03:20:42;12.20;;;9.93;;
52035;SDS011;38046;49.448;32.074;2023-06-19T03:23:07;12.05;;;10.70;;
52035;SDS011;38046;49.448;32.074;2023-06-19T03:25:33;13.93;;;11.57;;
52035;SDS011;38046;49.448;32.074;2023-06-19T03:28:03;17.08;;;11.75;;
52035;SDS011;38046;49.448;32.074;2023-06-19T03:30:29;15.43;;;12.45;;
52035;SDS011;38046;49.448;32.074;2023-06-19T03:32:55;15.57;;;12.65;;
52035;SDS011;38046;49.448;32.074;2023-06-19T03:35:21;17.13;;;13.90;;
52035;SDS011;38046;49.448;32.074;2023-06-19T03:37:47;19.05;;;14.65;;
52035;SDS011;38046;49.448;32.074;2023-06-19T03:40:12;18.58;;;15.98;;
52035;SDS011;38046;49.448;32.074;2023-06-19T03:42:39;17.88;;;14.68;;
52035;SDS011;38046;49.448;32.074;2023-06-19T03:45:05;18.05;;;15.02;;
52035;SDS011;38046;49.448;32.074;2023-06-19T03:47:31;19.55;;;13.48;;
52035;SDS011;38046;49.448;32.074;2023-06-19T03:49:57;16.05;;;12.93;;
52035;SDS011;38046;49.448;32.074;2023-06-19T03:52:23;15.60;;;11.48;;
52035;SDS011;38046;49.448;32.074;2023-06-19T03:54:48;12.93;;;10.35;;
52035;SDS011;38046;49.448;32.074;2023-06-19T03:57:14;12.25;;;10.25;;
52035;SDS011;38046;49.448;32.074;2023-06-19T03:59:40;10.02;;;8.95;;
52035;SDS011;38046;49.448;32.074;2023-06-19T04:02:06;10.57;;;8.40;;
52035;SDS011;38046;49.448;32.074;2023-06-19T04:04:31;11.15;;;8.27;;
52035;SDS011;38046;49.448;32.074;2023-06-19T04:06:57;9.00;;;7.75;;
52035;SDS011;38046;49.448;32.074;2023-06-19T04:09:24;9.13;;;7.63;;
52035;SDS011;38046;49.448;32.074;2023-06-19T04:11:50;8.85;;;7.57;;
52035;SDS011;38046;49.448;32.074;2023-06-19T04:14:15;9.13;;;7.45;;
52035;SDS011;38046;49.448;32.074;2023-06-19T04:16:41;8.82;;;7.05;;
52035;SDS011;38046;49.448;32.074;2023-06-19T04:19:07;8.23;;;6.85;;
52035;SDS011;38046;49.448;32.074;2023-06-19T04:21:32;8.73;;;6.95;;
52035;SDS011;38046;49.448;32.074;2023-06-19T04:23:58;8.02;;;7.20;;
52035;SDS011;38046;49.448;32.074;2023-06-19T04:26:23;8.55;;;7.07;;
52035;SDS011;38046;49.448;32.074;2023-06-19T04:28:49;8.88;;;7.35;;
52035;SDS011;38046;49.448;32.074;2023-06-19T04:31:15;10.68;;;7.22;;
52035;SDS011;38046;49.448;32.074;2023-06-19T04:33:44;10.27;;;6.82;;
52035;SDS011;38046;49.448;32.074;2023-06-19T04:36:10;9.52;;;7.60;;
52035;SDS011;38046;49.448;32.074;2023-06-19T04:38:36;11.80;;;6.97;;
52035;SDS011;38046;49.448;32.074;2023-06-19T04:41:01;9.07;;;6.32;;
52035;SDS011;38046;49.448;32.074;2023-06-19T04:43:27;8.38;;;7.00;;
52035;SDS011;38046;49.448;32.074;2023-06-19T04:45:53;9.68;;;7.10;;
52035;SDS011;38046;49.448;32.074;2023-06-19T04:48:18;8.98;;;6.78;;
52035;SDS011;38046;49.448;32.074;2023-06-19T04:50:44;9.65;;;6.30;;
52035;SDS011;38046;49.448;32.074;2023-06-19T04:53:09;8.02;;;6.50;;
52035;SDS011;38046;49.448;32.074;2023-06-19T04:55:35;10.15;;;6.85;;
52035;SDS011;38046;49.448;32.074;2023-06-19T04:58:01;7.95;;;7.15;;
52035;SDS011;38046;49.448;32.074;2023-06-19T05:00:26;9.32;;;6.70;;
52035;SDS011;38046;49.448;32.074;2023-06-19T05:02:52;8.98;;;6.68;;
52035;SDS011;38046;49.448;32.074;2023-06-19T05:05:18;7.75;;;6.80;;
52035;SDS011;38046;49.448;32.074;2023-06-19T05:07:44;7.75;;;6.78;;
52035;SDS011;38046;49.448;32.074;2023-06-19T05:10:10;8.20;;;7.13;;
52035;SDS011;38046;49.448;32.074;2023-06-19T05:12:36;11.18;;;7.07;;
52035;SDS011;38046;49.448;32.074;2023-06-19T05:15:01;8.77;;;7.00;;
52035;SDS011;38046;49.448;32.074;2023-06-19T05:17:27;8.95;;;6.82;;
52035;SDS011;38046;49.448;32.074;2023-06-19T05:19:53;8.55;;;7.47;;
52035;SDS011;38046;49.448;32.074;2023-06-19T05:22:19;8.35;;;6.80;;
52035;SDS011;38046;49.448;32.074;2023-06-19T05:24:46;8.25;;;7.30;;
52035;SDS011;38046;49.448;32.074;2023-06-19T05:27:12;9.07;;;7.57;;
52035;SDS011;38046;49.448;32.074;2023-06-19T05:29:38;8.73;;;7.05;;
52035;SDS011;38046;49.448;32.074;2023-06-19T05:32:03;9.90;;;7.82;;
52035;SDS011;38046;49.448;32.074;2023-06-19T05:34:29;10.32;;;8.48;;
52035;SDS011;38046;49.448;32.074;2023-06-19T05:36:55;12.23;;;7.25;;
52035;SDS011;38046;49.448;32.074;2023-06-19T05:39:22;9.45;;;7.60;;
52035;SDS011;38046;49.448;32.074;2023-06-19T05:41:47;12.63;;;8.18;;
52035;SDS011;38046;49.448;32.074;2023-06-19T05:44:13;8.23;;;7.22;;
52035;SDS011;38046;49.448;32.074;2023-06-19T05:46:41;16.02;;;8.20;;
52035;SDS011;38046;49.448;32.074;2023-06-19T05:49:06;10.25;;;7.75;;
52035;SDS011;38046;49.448;32.074;2023-06-19T05:51:32;10.98;;;7.90;;
52035;SDS011;38046;49.448;32.074;2023-06-19T05:53:58;11.43;;;8.25;;
52035;SDS011;38046;49.448;32.074;2023-06-19T05:56:28;7.78;;;6.93;;
52035;SDS011;38046;49.448;32.074;2023-06-19T05:58:54;12.20;;;8.38;;
52035;SDS011;38046;49.448;32.074;2023-06-19T06:01:20;10.85;;;7.72;;
52035;SDS011;38046;49.448;32.074;2023-06-19T06:03:46;10.02;;;7.57;;
52035;SDS011;38046;49.448;32.074;2023-06-19T06:06:11;9.75;;;8.32;;
52035;SDS011;38046;49.448;32.074;2023-06-19T06:08:37;8.10;;;7.20;;
52035;SDS011;38046;49.448;32.074;2023-06-19T06:11:02;9.52;;;7.97;;
52035;SDS011;38046;49.448;32.074;2023-06-19T06:13:28;10.68;;;8.00;;
52035;SDS011;38046;49.448;32.074;2023-06-19T06:15:54;10.07;;;7.43;;
52035;SDS011;38046;49.448;32.074;2023-06-19T06:18:19;9.70;;;7.93;;
52035;SDS011;38046;49.448;32.074;2023-06-19T06:20:45;9.55;;;7.40;;
52035;SDS011;38046;49.448;32.074;2023-06-19T06:23:11;9.57;;;8.18;;
52035;SDS011;38046;49.448;32.074;2023-06-19T06:25:36;9.85;;;7.93;;
52035;SDS011;38046;49.448;32.074;2023-06-19T06:28:02;12.27;;;8.38;;
52035;SDS011;38046;49.448;32.074;2023-06-19T06:30:28;9.32;;;8.32;;
52035;SDS011;38046;49.448;32.074;2023-06-19T06:32:53;10.65;;;8.02;;
52035;SDS011;38046;49.448;32.074;2023-06-19T06:35:19;9.07;;;7.63;;
52035;SDS011;38046;49.448;32.074;2023-06-19T06:37:45;11.80;;;8.07;;
52035;SDS011;38046;49.448;32.074;2023-06-19T06:40:11;10.68;;;7.20;;
52035;SDS011;38046;49.448;32.074;2023-06-19T06:42:37;10.68;;;8.57;;
52035;SDS011;38046;49.448;32.074;2023-06-19T06:45:04;10.25;;;8.05;;
52035;SDS011;38046;49.448;32.074;2023-06-19T06:47:31;11.95;;;7.35;;
52035;SDS011;38046;49.448;32.074;2023-06-19T06:49:57;8.60;;;7.13;;
52035;SDS011;38046;49.448;32.074;2023-06-19T06:52:22;9.82;;;8.55;;
52035;SDS011;38046;49.448;32.074;2023-06-19T06:54:49;10.10;;;7.75;;
52035;SDS011;38046;49.448;32.074;2023-06-19T06:57:14;10.13;;;7.85;;
52035;SDS011;38046;49.448;32.074;2023-06-19T06:59:40;11.95;;;8.15;;
52035;SDS011;38046;49.448;32.074;2023-06-19T07:02:06;8.88;;;7.55;;
52035;SDS011;38046;49.448;32.074;2023-06-19T07:04:31;8.98;;;7.70;;
52035;SDS011;38046;49.448;32.074;2023-06-19T07:06:57;10.63;;;7.72;;
52035;SDS011;38046;49.448;32.074;2023-06-19T07:09:23;10.05;;;7.55;;
52035;SDS011;38046;49.448;32.074;2023-06-19T07:11:48;12.57;;;7.80;;
52035;SDS011;38046;49.448;32.074;2023-06-19T07:14:14;9.13;;;7.60;;
52035;SDS011;38046;49.448;32.074;2023-06-19T07:16:43;9.60;;;7.38;;
52035;SDS011;38046;49.448;32.074;2023-06-19T07:19:10;10.95;;;8.07;;
52035;SDS011;38046;49.448;32.074;2023-06-19T07:21:36;9.70;;;7.32;;
52035;SDS011;38046;49.448;32.074;2023-06-19T07:24:03;10.27;;;7.50;;
52035;SDS011;38046;49.448;32.074;2023-06-19T07:26:30;10.75;;;7.22;;
52035;SDS011;38046;49.448;32.074;2023-06-19T07:28:55;8.23;;;6.90;;
52035;SDS011;38046;49.448;32.074;2023-06-19T07:31:21;9.45;;;7.57;;
52035;SDS011;38046;49.448;32.074;2023-06-19T07:33:47;8.68;;;6.95;;
52035;SDS011;38046;49.448;32.074;2023-06-19T07:36:12;9.70;;;7.50;;
52035;SDS011;38046;49.448;32.074;2023-06-19T07:38:39;9.88;;;7.10;;
52035;SDS011;38046;49.448;32.074;2023-06-19T07:41:05;8.27;;;6.90;;
52035;SDS011;38046;49.448;32.074;2023-06-19T07:43:33;8.77;;;6.80;;
52035;SDS011;38046;49.448;32.074;2023-06-19T07:45:59;8.77;;;6.75;;
52035;SDS011;38046;49.448;32.074;2023-06-19T07:48:24;8.68;;;7.10;;
52035;SDS011;38046;49.448;32.074;2023-06-19T07:50:50;8.90;;;6.75;;
52035;SDS011;38046;49.448;32.074;2023-06-19T07:53:16;8.40;;;6.97;;
52035;SDS011;38046;49.448;32.074;2023-06-19T07:55:41;9.15;;;6.28;;
52035;SDS011;38046;49.448;32.074;2023-06-19T07:58:07;10.38;;;6.47;;
52035;SDS011;38046;49.448;32.074;2023-06-19T08:00:33;7.18;;;5.85;;
52035;SDS011;38046;49.448;32.074;2023-06-19T08:02:59;8.43;;;6.53;;
52035;SDS011;38046;49.448;32.074;2023-06-19T08:05:24;8.88;;;6.97;;
52035;SDS011;38046;49.448;32.074;2023-06-19T08:07:50;9.68;;;6.40;;
52035;SDS011;38046;49.448;32.074;2023-06-19T08:10:16;7.45;;;6.18;;
52035;SDS011;38046;49.448;32.074;2023-06-19T08:12:42;7.72;;;6.43;;
52035;SDS011;38046;49.448;32.074;2023-06-19T08:15:08;9.13;;;6.63;;
52035;SDS011;38046;49.448;32.074;2023-06-19T08:17:35;9.40;;;7.28;;
52035;SDS011;38046;49.448;32.074;2023-06-19T08:20:01;10.20;;;6.57;;
52035;SDS011;38046;49.448;32.074;2023-06-19T08:22:28;8.85;;;6.72;;
52035;SDS011;38046;49.448;32.074;2023-06-19T08:24:54;7.70;;;6.55;;
52035;SDS011;38046;49.448;32.074;2023-06-19T08:27:20;7.10;;;6.05;;
52035;SDS011;38046;49.448;32.074;2023-06-19T08:29:45;7.75;;;6.13;;
52035;SDS011;38046;49.448;32.074;2023-06-19T08:32:11;8.55;;;6.55;;
52035;SDS011;38046;49.448;32.074;2023-06-19T08:34:36;7.32;;;5.68;;
52035;SDS011;38046;49.448;32.074;2023-06-19T08:37:03;8.10;;;5.47;;
52035;SDS011;38046;49.448;32.074;2023-06-19T08:39:29;7.20;;;5.53;;
52035;SDS011;38046;49.448;32.074;2023-06-19T08:41:55;7.68;;;5.93;;
52035;SDS011;38046;49.448;32.074;2023-06-19T08:44:21;8.32;;;5.45;;
52035;SDS011;38046;49.448;32.074;2023-06-19T08:46:46;6.28;;;5.40;;
52035;SDS011;38046;49.448;32.074;2023-06-19T08:49:12;10.50;;;5.68;;
52035;SDS011;38046;49.448;32.074;2023-06-19T08:51:38;6.93;;;5.10;;
52035;SDS011;38046;49.448;32.074;2023-06-19T08:54:06;6.80;;;5.53;;
52035;SDS011;38046;49.448;32.074;2023-06-19T08:56:33;6.47;;;5.07;;
52035;SDS011;38046;49.448;32.074;2023-06-19T08:59:12;7.05;;;5.57;;
52035;SDS011;38046;49.448;32.074;2023-06-19T09:01:39;7.82;;;5.78;;
52035;SDS011;38046;49.448;32.074;2023-06-19T09:04:12;7.32;;;5.70;;
52035;SDS011;38046;49.448;32.074;2023-06-19T09:06:46;7.30;;;5.22;;
52035;SDS011;38046;49.448;32.074;2023-06-19T09:09:13;9.38;;;5.35;;
52035;SDS011;38046;49.448;32.074;2023-06-19T09:11:40;6.90;;;5.18;;
52035;SDS011;38046;49.448;32.074;2023-06-19T09:14:08;8.38;;;5.57;;
52035;SDS011;38046;49.448;32.074;2023-06-19T09:16:39;8.10;;;5.65;;
52035;SDS011;38046;49.448;32.074;2023-06-19T09:19:05;7.82;;;5.30;;
52035;SDS011;38046;49.448;32.074;2023-06-19T09:21:35;6.63;;;5.38;;
52035;SDS011;38046;49.448;32.074;2023-06-19T09:24:11;7.63;;;5.57;;
52035;SDS011;38046;49.448;32.074;2023-06-19T09:26:37;7.40;;;5.55;;
52035;SDS011;38046;49.448;32.074;2023-06-19T09:29:12;6.60;;;4.90;;
52035;SDS011;38046;49.448;32.074;2023-06-19T09:31:40;6.97;;;5.30;;
52035;SDS011;38046;49.448;32.074;2023-06-19T09:34:07;8.77;;;5.25;;
52035;SDS011;38046;49.448;32.074;2023-06-19T09:36:33;10.30;;;4.82;;
52035;SDS011;38046;49.448;32.074;2023-06-19T09:39:01;7.72;;;5.05;;
52035;SDS011;38046;49.448;32.074;2023-06-19T09:41:28;9.15;;;4.90;;
52035;SDS011;38046;49.448;32.074;2023-06-19T09:43:55;6.25;;;4.82;;
52035;SDS011;38046;49.448;32.074;2023-06-19T09:46:26;9.57;;;5.18;;
52035;SDS011;38046;49.448;32.074;2023-06-19T09:48:55;7.28;;;5.00;;
52035;SDS011;38046;49.448;32.074;2023-06-19T09:51:33;7.40;;;5.05;;
52035;SDS011;38046;49.448;32.074;2023-06-19T09:54:02;7.32;;;5.00;;
52035;SDS011;38046;49.448;32.074;2023-06-19T09:56:30;6.00;;;4.60;;
52035;SDS011;38046;49.448;32.074;2023-06-19T09:58:57;6.00;;;5.00;;
52035;SDS011;38046;49.448;32.074;2023-06-19T10:01:25;6.38;;;4.75;;
52035;SDS011;38046;49.448;32.074;2023-06-19T10:04:03;6.65;;;4.93;;
52035;SDS011;38046;49.448;32.074;2023-06-19T10:06:30;7.03;;;4.93;;
52035;SDS011;38046;49.448;32.074;2023-06-19T10:08:56;6.60;;;4.63;;
52035;SDS011;38046;49.448;32.074;2023-06-19T10:11:43;6.82;;;4.82;;
52035;SDS011;38046;49.448;32.074;2023-06-19T10:14:11;8.20;;;5.10;;
52035;SDS011;38046;49.448;32.074;2023-06-19T10:16:37;5.70;;;4.75;;
52035;SDS011;38046;49.448;32.074;2023-06-19T10:19:11;6.45;;;4.85;;
52035;SDS011;38046;49.448;32.074;2023-06-19T10:21:50;6.95;;;4.88;;
52035;SDS011;38046;49.448;32.074;2023-06-19T10:24:18;8.73;;;5.38;;
52035;SDS011;38046;49.448;32.074;2023-06-19T10:26:58;7.88;;;4.60;;
52035;SDS011;38046;49.448;32.074;2023-06-19T10:29:25;6.00;;;4.53;;
52035;SDS011;38046;49.448;32.074;2023-06-19T10:31:53;6.28;;;4.60;;
52035;SDS011;38046;49.448;32.074;2023-06-19T10:34:19;6.07;;;4.78;;
52035;SDS011;38046;49.448;32.074;2023-06-19T10:36:44;8.27;;;5.20;;
52035;SDS011;38046;49.448;32.074;2023-06-19T10:39:10;7.07;;;5.03;;
52035;SDS011;38046;49.448;32.074;2023-06-19T10:41:39;6.10;;;4.80;;
52035;SDS011;38046;49.448;32.074;2023-06-19T10:44:06;7.28;;;4.85;;
52035;SDS011;38046;49.448;32.074;2023-06-19T10:46:37;5.97;;;4.40;;
52035;SDS011;38046;49.448;32.074;2023-06-19T10:49:05;6.50;;;4.38;;
52035;SDS011;38046;49.448;32.074;2023-06-19T10:51:35;8.35;;;4.85;;
52035;SDS011;38046;49.448;32.074;2023-06-19T10:54:02;5.72;;;4.82;;
52035;SDS011;38046;49.448;32.074;2023-06-19T10:56:28;8.20;;;4.35;;
52035;SDS011;38046;49.448;32.074;2023-06-19T10:58:58;6.80;;;5.28;;
52035;SDS011;38046;49.448;32.074;2023-06-19T11:01:34;6.05;;;4.88;;
52035;SDS011;38046;49.448;32.074;2023-06-19T11:04:02;6.55;;;4.75;;
52035;SDS011;38046;49.448;32.074;2023-06-19T11:06:29;6.35;;;4.85;;
52035;SDS011;38046;49.448;32.074;2023-06-19T11:08:55;6.65;;;4.35;;
52035;SDS011;38046;49.448;32.074;2023-06-19T11:11:21;8.88;;;4.43;;
52035;SDS011;38046;49.448;32.074;2023-06-19T11:13:47;4.85;;;3.97;;
52035;SDS011;38046;49.448;32.074;2023-06-19T11:16:14;6.65;;;4.35;;
52035;SDS011;38046;49.448;32.074;2023-06-19T11:18:39;7.63;;;4.72;;
52035;SDS011;38046;49.448;32.074;2023-06-19T11:21:05;6.28;;;4.45;;
52035;SDS011;38046;49.448;32.074;2023-06-19T11:23:31;5.45;;;4.43;;
52035;SDS011;38046;49.448;32.074;2023-06-19T11:26:03;5.35;;;4.30;;
52035;SDS011;38046;49.448;32.074;2023-06-19T11:28:29;5.60;;;4.10;;
52035;SDS011;38046;49.448;32.074;2023-06-19T11:30:59;6.35;;;4.53;;
52035;SDS011;38046;49.448;32.074;2023-06-19T11:33:29;5.55;;;4.15;;
52035;SDS011;38046;49.448;32.074;2023-06-19T11:35:58;5.93;;;4.10;;
52035;SDS011;38046;49.448;32.074;2023-06-19T11:38:25;5.93;;;4.32;;
52035;SDS011;38046;49.448;32.074;2023-06-19T11:40:52;6.88;;;4.30;;
52035;SDS011;38046;49.448;32.074;2023-06-19T11:43:29;7.45;;;4.10;;
52035;SDS011;38046;49.448;32.074;2023-06-19T11:46:05;4.20;;;3.63;;
52035;SDS011;38046;49.448;32.074;2023-06-19T11:48:31;8.40;;;3.85;;
52035;SDS011;38046;49.448;32.074;2023-06-19T11:50:58;6.13;;;3.75;;
52035;SDS011;38046;49.448;32.074;2023-06-19T12:39:33;5.13;;;3.70;;
52035;SDS011;38046;49.448;32.074;2023-06-19T12:41:59;4.07;;;3.42;;
52035;SDS011;38046;49.448;32.074;2023-06-19T12:44:25;5.47;;;3.72;;
52035;SDS011;38046;49.448;32.074;2023-06-19T12:46:50;4.88;;;3.40;;
52035;SDS011;38046;49.448;32.074;2023-06-19T12:49:17;5.00;;;3.38;;
52035;SDS011;38046;49.448;32.074;2023-06-19T12:51:43;5.85;;;4.03;;
52035;SDS011;38046;49.448;32.074;2023-06-19T12:54:09;5.18;;;3.53;;
52035;SDS011;38046;49.448;32.074;2023-06-19T12:56:34;4.45;;;3.67;;
52035;SDS011;38046;49.448;32.074;2023-06-19T12:59:00;4.65;;;3.28;;
52035;SDS011;38046;49.448;32.074;2023-06-19T13:01:26;4.95;;;3.40;;
52035;SDS011;38046;49.448;32.074;2023-06-19T13:03:51;5.53;;;3.45;;
52035;SDS011;38046;49.448;32.074;2023-06-19T13:06:17;6.32;;;3.92;;
52035;SDS011;38046;49.448;32.074;2023-06-19T13:08:44;6.07;;;3.90;;
52035;SDS011;38046;49.448;32.074;2023-06-19T13:11:10;5.00;;;3.67;;
52035;SDS011;38046;49.448;32.074;2023-06-19T13:13:35;5.95;;;3.83;;
52035;SDS011;38046;49.448;32.074;2023-06-19T13:16:01;5.35;;;3.45;;
52035;SDS011;38046;49.448;32.074;2023-06-19T13:18:27;5.82;;;3.90;;
52035;SDS011;38046;49.448;32.074;2023-06-19T13:20:52;6.03;;;3.88;;
52035;SDS011;38046;49.448;32.074;2023-06-19T13:23:18;6.13;;;3.97;;
52035;SDS011;38046;49.448;32.074;2023-06-19T13:25:43;4.38;;;3.65;;
52035;SDS011;38046;49.448;32.074;2023-06-19T13:28:09;5.78;;;4.30;;
52035;SDS011;38046;49.448;32.074;2023-06-19T13:30:35;6.63;;;4.20;;
52035;SDS011;38046;49.448;32.074;2023-06-19T13:33:00;5.82;;;3.85;;
52035;SDS011;38046;49.448;32.074;2023-06-19T13:35:26;5.40;;;3.70;;
52035;SDS011;38046;49.448;32.074;2023-06-19T13:37:52;6.65;;;4.07;;
52035;SDS011;38046;49.448;32.074;2023-06-19T13:40:17;5.80;;;3.95;;
52035;SDS011;38046;49.448;32.074;2023-06-19T13:42:43;11.15;;;3.90;;
52035;SDS011;38046;49.448;32.074;2023-06-19T13:45:08;6.78;;;3.88;;
52035;SDS011;38046;49.448;32.074;2023-06-19T13:47:35;5.90;;;3.97;;
52035;SDS011;38046;49.448;32.074;2023-06-19T13:50:02;6.18;;;4.38;;
52035;SDS011;38046;49.448;32.074;2023-06-19T13:52:28;6.78;;;3.95;;
52035;SDS011;38046;49.448;32.074;2023-06-19T13:54:53;5.07;;;4.00;;
52035;SDS011;38046;49.448;32.074;2023-06-19T13:57:19;7.78;;;4.13;;
52035;SDS011;38046;49.448;32.074;2023-06-19T13:59:45;7.43;;;4.15;;
52035;SDS011;38046;49.448;32.074;2023-06-19T14:02:10;5.30;;;4.22;;
52035;SDS011;38046;49.448;32.074;2023-06-19T14:04:36;4.70;;;4.05;;
52035;SDS011;38046;49.448;32.074;2023-06-19T14:07:01;5.32;;;3.78;;
52035;SDS011;38046;49.448;32.074;2023-06-19T14:09:27;5.57;;;3.97;;
52035;SDS011;38046;49.448;32.074;2023-06-19T14:11:53;8.35;;;5.13;;
52035;SDS011;38046;49.448;32.074;2023-06-19T14:14:19;5.78;;;4.50;;
52035;SDS011;38046;49.448;32.074;2023-06-19T14:16:45;6.45;;;4.20;;
52035;SDS011;38046;49.448;32.074;2023-06-19T14:19:10;5.38;;;4.20;;
52035;SDS011;38046;49.448;32.074;2023-06-19T14:21:36;6.22;;;4.13;;
52035;SDS011;38046;49.448;32.074;2023-06-19T14:24:02;6.03;;;4.13;;
52035;SDS011;38046;49.448;32.074;2023-06-19T14:26:27;5.88;;;4.45;;
52035;SDS011;38046;49.448;32.074;2023-06-19T14:28:53;6.05;;;4.05;;
52035;SDS011;38046;49.448;32.074;2023-06-19T14:31:22;5.80;;;3.78;;
52035;SDS011;38046;49.448;32.074;2023-06-19T14:33:50;5.70;;;3.80;;
52035;SDS011;38046;49.448;32.074;2023-06-19T14:36:16;5.93;;;3.95;;
52035;SDS011;38046;49.448;32.074;2023-06-19T14:38:42;6.93;;;4.43;;
52035;SDS011;38046;49.448;32.074;2023-06-19T14:41:07;9.68;;;4.88;;
52035;SDS011;38046;49.448;32.074;2023-06-19T14:43:33;6.82;;;4.88;;
52035;SDS011;38046;49.448;32.074;2023-06-19T14:46:00;7.68;;;4.68;;
52035;SDS011;38046;49.448;32.074;2023-06-19T14:48:28;6.97;;;4.28;;
52035;SDS011;38046;49.448;32.074;2023-06-19T14:50:55;6.32;;;4.68;;
52035;SDS011;38046;49.448;32.074;2023-06-19T14:53:21;8.95;;;3.80;;
52035;SDS011;38046;49.448;32.074;2023-06-19T14:55:46;5.68;;;3.60;;
52035;SDS011;38046;49.448;32.074;2023-06-19T14:58:13;9.32;;;4.20;;
52035;SDS011;38046;49.448;32.074;2023-06-19T15:00:39;5.65;;;3.63;;
52035;SDS011;38046;49.448;32.074;2023-06-19T15:03:05;5.40;;;3.60;;
52035;SDS011;38046;49.448;32.074;2023-06-19T15:05:31;5.18;;;3.88;;
52035;SDS011;38046;49.448;32.074;2023-06-19T15:07:57;5.78;;;3.97;;
52035;SDS011;38046;49.448;32.074;2023-06-19T15:10:23;5.80;;;3.90;;
52035;SDS011;38046;49.448;32.074;2023-06-19T15:12:49;5.47;;;3.70;;
52035;SDS011;38046;49.448;32.074;2023-06-19T15:15:15;5.47;;;3.38;;